sensor_id;sensor_type;location;lat;lon;timestamp;pressure;altitude;pressure_sealevel;temperature;humidity
41334;BME280;27078;46.428;6.256;2023-04-08T00:00:04;96673.31;;;3.26;100.00
41334;BME280;27078;46.428;6.256;2023-04-08T00:02:30;96668.19;;;3.24;100.00
41334;BME280;27078;46.428;6.256;2023-04-08T00:04:56;96669.69;;;3.29;100.00
41334;BME280;27078;46.428;6.256;2023-04-08T00:07:21;96664.72;;;3.24;100.00
41334;BME280;27078;46.428;6.256;2023-04-08T00:09:46;96670.09;;;3.21;100.00
41334;BME280;27078;46.428;6.256;2023-04-08T00:12:12;96661.38;;;3.22;100.00
41334;BME280;27078;46.428;6.256;2023-04-08T00:14:37;96669.34;;;3.19;100.00
41334;BME280;27078;46.428;6.256;2023-04-08T00:17:02;96671.28;;;3.15;100.00
41334;BME280;27078;46.428;6.256;2023-04-08T00:19:28;96667.25;;;3.10;100.00
41334;BME280;27078;46.428;6.256;2023-04-08T00:21:53;96667.34;;;3.08;100.00
41334;BME280;27078;46.428;6.256;2023-04-08T00:24:18;96667.53;;;3.05;100.00
41334;BME280;27078;46.428;6.256;2023-04-08T00:26:44;96662.63;;;2.99;100.00
41334;BME280;27078;46.428;6.256;2023-04-08T00:29:09;96663.81;;;2.93;100.00
41334;BME280;27078;46.428;6.256;2023-04-08T00:31:34;96666.00;;;3.01;100.00
41334;BME280;27078;46.428;6.256;2023-04-08T00:34:00;96664.03;;;3.04;100.00
41334;BME280;27078;46.428;6.256;2023-04-08T00:36:26;96663.28;;;3.02;100.00
41334;BME280;27078;46.428;6.256;2023-04-08T00:38:51;96679.97;;;3.00;100.00
41334;BME280;27078;46.428;6.256;2023-04-08T00:41:17;96670.53;;;2.97;100.00
41334;BME280;27078;46.428;6.256;2023-04-08T00:43:42;96660.00;;;2.83;100.00
41334;BME280;27078;46.428;6.256;2023-04-08T00:46:08;96665.91;;;2.87;100.00
41334;BME280;27078;46.428;6.256;2023-04-08T00:48:33;96661.09;;;3.11;100.00
41334;BME280;27078;46.428;6.256;2023-04-08T00:50:59;96663.63;;;2.96;100.00
41334;BME280;27078;46.428;6.256;2023-04-08T00:53:25;96663.53;;;2.98;100.00
41334;BME280;27078;46.428;6.256;2023-04-08T00:55:50;96664.50;;;2.97;100.00
41334;BME280;27078;46.428;6.256;2023-04-08T00:58:16;96661.38;;;2.90;100.00
41334;BME280;27078;46.428;6.256;2023-04-08T01:00:49;96661.78;;;2.82;100.00
41334;BME280;27078;46.428;6.256;2023-04-08T01:03:41;96659.31;;;2.79;100.00
41334;BME280;27078;46.428;6.256;2023-04-08T01:06:31;96660.00;;;2.83;100.00
41334;BME280;27078;46.428;6.256;2023-04-08T01:09:00;96666.06;;;2.68;100.00
41334;BME280;27078;46.428;6.256;2023-04-08T01:11:31;96664.38;;;2.67;100.00
41334;BME280;27078;46.428;6.256;2023-04-08T01:14:00;96657.16;;;2.72;100.00
41334;BME280;27078;46.428;6.256;2023-04-08T01:16:30;96660.84;;;2.68;100.00
41334;BME280;27078;46.428;6.256;2023-04-08T01:18:56;96663.28;;;2.71;100.00
41334;BME280;27078;46.428;6.256;2023-04-08T01:21:22;96661.28;;;2.76;100.00
41334;BME280;27078;46.428;6.256;2023-04-08T01:24:05;96664.78;;;2.75;100.00
41334;BME280;27078;46.428;6.256;2023-04-08T01:26:35;96661.28;;;2.76;100.00
41334;BME280;27078;46.428;6.256;2023-04-08T01:29:01;96660.34;;;2.77;100.00
41334;BME280;27078;46.428;6.256;2023-04-08T01:31:28;96659.16;;;2.67;100.00
41334;BME280;27078;46.428;6.256;2023-04-08T01:33:56;96652.09;;;2.53;100.00
41334;BME280;27078;46.428;6.256;2023-04-08T01:36:23;96659.47;;;2.44;100.00
41334;BME280;27078;46.428;6.256;2023-04-08T01:38:50;96656.13;;;2.58;100.00
41334;BME280;27078;46.428;6.256;2023-04-08T01:41:17;96655.53;;;2.53;100.00
41334;BME280;27078;46.428;6.256;2023-04-08T01:43:43;96660.50;;;2.90;100.00
41334;BME280;27078;46.428;6.256;2023-04-08T01:46:10;96653.47;;;2.76;100.00
41334;BME280;27078;46.428;6.256;2023-04-08T01:48:37;96660.50;;;2.58;100.00
41334;BME280;27078;46.428;6.256;2023-04-08T01:51:04;96665.03;;;2.54;100.00
41334;BME280;27078;46.428;6.256;2023-04-08T01:53:30;96658.63;;;2.44;100.00
41334;BME280;27078;46.428;6.256;2023-04-08T01:56:03;96659.47;;;2.44;100.00
41334;BME280;27078;46.428;6.256;2023-04-08T01:58:45;96654.84;;;2.50;100.00
41334;BME280;27078;46.428;6.256;2023-04-08T02:01:16;96657.78;;;2.43;100.00
41334;BME280;27078;46.428;6.256;2023-04-08T02:03:44;96657.19;;;2.38;100.00
41334;BME280;27078;46.428;6.256;2023-04-08T02:06:11;96655.84;;;2.31;100.00
41334;BME280;27078;46.428;6.256;2023-04-08T02:08:36;96659.28;;;2.32;100.00
41334;BME280;27078;46.428;6.256;2023-04-08T02:11:02;96666.56;;;2.25;100.00
41334;BME280;27078;46.428;6.256;2023-04-08T02:13:28;96661.59;;;2.20;100.00
41334;BME280;27078;46.428;6.256;2023-04-08T02:16:09;96657.44;;;2.34;100.00
41334;BME280;27078;46.428;6.256;2023-04-08T02:18:38;96666.19;;;2.15;100.00
41334;BME280;27078;46.428;6.256;2023-04-08T02:21:10;96661.94;;;2.30;100.00
41334;BME280;27078;46.428;6.256;2023-04-08T02:23:38;96660.41;;;2.26;100.00
41334;BME280;27078;46.428;6.256;2023-04-08T02:26:07;96658.25;;;2.18;100.00
41334;BME280;27078;46.428;6.256;2023-04-08T02:28:38;96672.47;;;2.11;100.00
41334;BME280;27078;46.428;6.256;2023-04-08T02:31:04;96674.63;;;2.03;100.00
41334;BME280;27078;46.428;6.256;2023-04-08T02:33:33;96674.34;;;1.92;100.00
41334;BME280;27078;46.428;6.256;2023-04-08T02:36:00;96663.03;;;1.93;100.00
41334;BME280;27078;46.428;6.256;2023-04-08T02:38:27;96676.72;;;1.96;100.00
41334;BME280;27078;46.428;6.256;2023-04-08T02:40:54;96671.72;;;2.09;100.00
41334;BME280;27078;46.428;6.256;2023-04-08T02:43:20;96673.41;;;2.10;100.00
41334;BME280;27078;46.428;6.256;2023-04-08T02:45:45;96670.19;;;2.05;100.00
41334;BME280;27078;46.428;6.256;2023-04-08T02:48:11;96665.09;;;2.03;100.00
41334;BME280;27078;46.428;6.256;2023-04-08T02:50:36;96668.03;;;2.13;100.00
41334;BME280;27078;46.428;6.256;2023-04-08T02:53:02;96673.88;;;2.18;100.00
41334;BME280;27078;46.428;6.256;2023-04-08T02:55:28;96665.63;;;2.26;100.00
41334;BME280;27078;46.428;6.256;2023-04-08T02:57:53;96666.38;;;2.12;100.00
41334;BME280;27078;46.428;6.256;2023-04-08T03:00:18;96655.78;;;2.15;100.00
41334;BME280;27078;46.428;6.256;2023-04-08T03:02:44;96666.06;;;2.01;100.00
41334;BME280;27078;46.428;6.256;2023-04-08T03:05:10;96661.84;;;1.98;100.00
41334;BME280;27078;46.428;6.256;2023-04-08T03:07:35;96665.16;;;1.85;100.00
41334;BME280;27078;46.428;6.256;2023-04-08T03:10:01;96662.09;;;1.76;100.00
41334;BME280;27078;46.428;6.256;2023-04-08T03:12:27;96662.16;;;1.92;100.00
41334;BME280;27078;46.428;6.256;2023-04-08T03:14:53;96658.16;;;2.02;100.00
41334;BME280;27078;46.428;6.256;2023-04-08T03:17:19;96660.00;;;2.00;100.00
41334;BME280;27078;46.428;6.256;2023-04-08T03:19:45;96660.53;;;2.07;100.00
41334;BME280;27078;46.428;6.256;2023-04-08T03:22:12;96671.97;;;2.04;100.00
41334;BME280;27078;46.428;6.256;2023-04-08T03:24:37;96672.97;;;2.02;100.00
41334;BME280;27078;46.428;6.256;2023-04-08T03:27:02;96672.03;;;2.03;100.00
41334;BME280;27078;46.428;6.256;2023-04-08T03:29:28;96670.13;;;2.07;100.00
41334;BME280;27078;46.428;6.256;2023-04-08T03:31:53;96675.69;;;2.34;100.00
41334;BME280;27078;46.428;6.256;2023-04-08T03:34:19;96674.53;;;2.39;100.00
41334;BME280;27078;46.428;6.256;2023-04-08T03:36:44;96673.66;;;2.39;100.00
41334;BME280;27078;46.428;6.256;2023-04-08T03:39:09;96678.66;;;2.43;100.00
41334;BME280;27078;46.428;6.256;2023-04-08T03:41:35;96677.13;;;2.39;100.00
41334;BME280;27078;46.428;6.256;2023-04-08T03:44:01;96678.28;;;2.34;100.00
41334;BME280;27078;46.428;6.256;2023-04-08T03:46:26;96673.69;;;2.21;100.00
41334;BME280;27078;46.428;6.256;2023-04-08T03:48:51;96678.78;;;2.24;100.00
41334;BME280;27078;46.428;6.256;2023-04-08T03:51:17;96686.09;;;2.34;100.00
41334;BME280;27078;46.428;6.256;2023-04-08T03:53:42;96681.66;;;2.36;100.00
41334;BME280;27078;46.428;6.256;2023-04-08T03:56:07;96685.03;;;2.54;100.00
41334;BME280;27078;46.428;6.256;2023-04-08T03:58:33;96685.59;;;2.60;100.00
41334;BME280;27078;46.428;6.256;2023-04-08T04:00:58;96687.06;;;2.64;100.00
41334;BME280;27078;46.428;6.256;2023-04-08T04:03:23;96678.75;;;2.58;100.00
41334;BME280;27078;46.428;6.256;2023-04-08T04:05:49;96681.41;;;2.40;100.00
41334;BME280;27078;46.428;6.256;2023-04-08T04:08:14;96683.63;;;2.31;100.00
41334;BME280;27078;46.428;6.256;2023-04-08T04:10:40;96678.59;;;2.28;100.00
41334;BME280;27078;46.428;6.256;2023-04-08T04:13:05;96688.00;;;2.30;100.00
41334;BME280;27078;46.428;6.256;2023-04-08T04:15:30;96683.09;;;2.41;100.00
41334;BME280;27078;46.428;6.256;2023-04-08T04:17:56;96685.91;;;2.54;100.00
41334;BME280;27078;46.428;6.256;2023-04-08T04:20:21;96686.75;;;2.71;100.00
41334;BME280;27078;46.428;6.256;2023-04-08T04:22:47;96691.31;;;2.83;100.00
41334;BME280;27078;46.428;6.256;2023-04-08T04:25:12;96687.28;;;3.25;100.00
41334;BME280;27078;46.428;6.256;2023-04-08T04:27:37;96687.47;;;3.22;100.00
41334;BME280;27078;46.428;6.256;2023-04-08T04:30:03;96690.91;;;3.22;100.00
41334;BME280;27078;46.428;6.256;2023-04-08T04:32:29;96689.13;;;3.23;100.00
41334;BME280;27078;46.428;6.256;2023-04-08T04:34:54;96691.81;;;3.21;100.00
41334;BME280;27078;46.428;6.256;2023-04-08T04:37:19;96692.84;;;3.19;100.00
41334;BME280;27078;46.428;6.256;2023-04-08T04:39:45;96693.69;;;3.19;100.00
41334;BME280;27078;46.428;6.256;2023-04-08T04:42:11;96695.38;;;3.20;100.00
41334;BME280;27078;46.428;6.256;2023-04-08T04:44:36;96701.44;;;3.21;100.00
41334;BME280;27078;46.428;6.256;2023-04-08T04:47:02;96691.94;;;3.20;100.00
41334;BME280;27078;46.428;6.256;2023-04-08T04:49:27;96694.44;;;3.05;100.00
41334;BME280;27078;46.428;6.256;2023-04-08T04:51:52;96696.03;;;3.08;100.00
41334;BME280;27078;46.428;6.256;2023-04-08T04:54:18;96691.50;;;3.12;100.00
41334;BME280;27078;46.428;6.256;2023-04-08T04:56:43;96696.63;;;3.13;100.00
41334;BME280;27078;46.428;6.256;2023-04-08T04:59:08;96703.47;;;3.16;100.00
41334;BME280;27078;46.428;6.256;2023-04-08T05:01:34;96701.50;;;3.19;100.00
41334;BME280;27078;46.428;6.256;2023-04-08T05:03:59;96704.66;;;3.26;100.00
41334;BME280;27078;46.428;6.256;2023-04-08T05:06:24;96701.19;;;3.25;100.00
41334;BME280;27078;46.428;6.256;2023-04-08T05:08:51;96716.69;;;3.29;100.00
41334;BME280;27078;46.428;6.256;2023-04-08T05:11:16;96705.97;;;3.33;100.00
41334;BME280;27078;46.428;6.256;2023-04-08T05:13:43;96711.19;;;3.33;100.00
41334;BME280;27078;46.428;6.256;2023-04-08T05:16:08;96712.78;;;3.36;100.00
41334;BME280;27078;46.428;6.256;2023-04-08T05:18:33;96709.75;;;3.43;100.00
41334;BME280;27078;46.428;6.256;2023-04-08T05:20:59;96716.41;;;3.49;100.00
41334;BME280;27078;46.428;6.256;2023-04-08T05:23:24;96721.28;;;3.55;100.00
41334;BME280;27078;46.428;6.256;2023-04-08T05:25:49;96725.31;;;3.61;100.00
41334;BME280;27078;46.428;6.256;2023-04-08T05:28:15;96723.13;;;3.69;100.00
41334;BME280;27078;46.428;6.256;2023-04-08T05:30:40;96727.66;;;3.81;100.00
41334;BME280;27078;46.428;6.256;2023-04-08T05:33:06;96724.78;;;3.86;100.00
41334;BME280;27078;46.428;6.256;2023-04-08T05:35:31;96723.59;;;3.92;100.00
41334;BME280;27078;46.428;6.256;2023-04-08T05:37:56;96723.47;;;3.93;100.00
41334;BME280;27078;46.428;6.256;2023-04-08T05:40:22;96724.81;;;4.00;100.00
41334;BME280;27078;46.428;6.256;2023-04-08T05:42:47;96721.00;;;4.06;100.00
41334;BME280;27078;46.428;6.256;2023-04-08T05:45:13;96732.59;;;4.16;100.00
41334;BME280;27078;46.428;6.256;2023-04-08T05:47:38;96731.22;;;4.25;100.00
41334;BME280;27078;46.428;6.256;2023-04-08T05:50:04;96735.34;;;4.29;100.00
41334;BME280;27078;46.428;6.256;2023-04-08T05:52:29;96728.31;;;4.29;100.00
41334;BME280;27078;46.428;6.256;2023-04-08T05:54:55;96734.13;;;4.35;100.00
41334;BME280;27078;46.428;6.256;2023-04-08T05:57:20;96741.03;;;4.36;100.00
41334;BME280;27078;46.428;6.256;2023-04-08T05:59:45;96739.75;;;4.43;100.00
41334;BME280;27078;46.428;6.256;2023-04-08T06:02:11;96733.78;;;4.55;100.00
41334;BME280;27078;46.428;6.256;2023-04-08T06:04:36;96739.00;;;4.69;100.00
41334;BME280;27078;46.428;6.256;2023-04-08T06:07:01;96746.13;;;4.82;100.00
41334;BME280;27078;46.428;6.256;2023-04-08T06:09:28;96748.91;;;4.93;100.00
41334;BME280;27078;46.428;6.256;2023-04-08T06:11:53;96746.22;;;5.09;100.00
41334;BME280;27078;46.428;6.256;2023-04-08T06:14:19;96747.41;;;5.18;100.00
41334;BME280;27078;46.428;6.256;2023-04-08T06:16:45;96758.63;;;5.34;100.00
41334;BME280;27078;46.428;6.256;2023-04-08T06:19:10;96753.97;;;5.52;100.00
41334;BME280;27078;46.428;6.256;2023-04-08T06:21:36;96758.53;;;5.63;100.00
41334;BME280;27078;46.428;6.256;2023-04-08T06:24:01;96754.44;;;5.86;100.00
41334;BME280;27078;46.428;6.256;2023-04-08T06:26:27;96740.91;;;6.06;100.00
41334;BME280;27078;46.428;6.256;2023-04-08T06:28:52;96744.94;;;6.38;100.00
41334;BME280;27078;46.428;6.256;2023-04-08T06:31:18;96747.50;;;6.52;100.00
41334;BME280;27078;46.428;6.256;2023-04-08T06:33:43;96747.59;;;6.63;100.00
41334;BME280;27078;46.428;6.256;2023-04-08T06:36:08;96736.69;;;6.69;100.00
41334;BME280;27078;46.428;6.256;2023-04-08T06:38:34;96738.25;;;6.72;100.00
41334;BME280;27078;46.428;6.256;2023-04-08T06:41:06;96738.88;;;6.76;100.00
41334;BME280;27078;46.428;6.256;2023-04-08T06:43:33;96738.34;;;6.70;100.00
41334;BME280;27078;46.428;6.256;2023-04-08T06:45:58;96739.28;;;6.82;100.00
41334;BME280;27078;46.428;6.256;2023-04-08T06:48:24;96748.09;;;6.94;100.00
41334;BME280;27078;46.428;6.256;2023-04-08T06:50:55;96747.34;;;7.18;100.00
41334;BME280;27078;46.428;6.256;2023-04-08T06:53:23;96754.94;;;7.46;100.00
41334;BME280;27078;46.428;6.256;2023-04-08T06:55:49;96752.16;;;7.85;100.00
41334;BME280;27078;46.428;6.256;2023-04-08T06:58:14;96738.34;;;8.18;100.00
41334;BME280;27078;46.428;6.256;2023-04-08T07:00:41;96741.97;;;8.40;100.00
41334;BME280;27078;46.428;6.256;2023-04-08T07:03:06;96751.16;;;8.47;100.00
41334;BME280;27078;46.428;6.256;2023-04-08T07:05:34;96747.59;;;8.70;100.00
41334;BME280;27078;46.428;6.256;2023-04-08T07:08:00;96745.25;;;9.12;100.00
41334;BME280;27078;46.428;6.256;2023-04-08T07:10:26;96747.34;;;9.41;100.00
41334;BME280;27078;46.428;6.256;2023-04-08T07:12:52;96737.00;;;9.61;100.00
41334;BME280;27078;46.428;6.256;2023-04-08T07:15:18;96744.97;;;9.38;100.00
41334;BME280;27078;46.428;6.256;2023-04-08T07:17:43;96747.50;;;9.28;100.00
41334;BME280;27078;46.428;6.256;2023-04-08T07:20:09;96749.78;;;9.10;100.00
41334;BME280;27078;46.428;6.256;2023-04-08T07:22:34;96750.47;;;9.01;100.00
41334;BME280;27078;46.428;6.256;2023-04-08T07:25:00;96751.94;;;9.05;100.00
41334;BME280;27078;46.428;6.256;2023-04-08T07:27:25;96755.53;;;9.04;100.00
41334;BME280;27078;46.428;6.256;2023-04-08T07:29:54;96750.72;;;9.09;100.00
41334;BME280;27078;46.428;6.256;2023-04-08T07:32:20;96753.34;;;9.21;100.00
41334;BME280;27078;46.428;6.256;2023-04-08T07:34:45;96748.09;;;9.21;100.00
41334;BME280;27078;46.428;6.256;2023-04-08T07:37:11;96762.97;;;9.22;100.00
41334;BME280;27078;46.428;6.256;2023-04-08T07:39:36;96758.06;;;9.17;100.00
41334;BME280;27078;46.428;6.256;2023-04-08T07:42:02;96761.63;;;9.16;100.00
41334;BME280;27078;46.428;6.256;2023-04-08T07:44:27;96758.63;;;8.98;100.00
41334;BME280;27078;46.428;6.256;2023-04-08T07:46:52;96759.59;;;8.97;100.00
41334;BME280;27078;46.428;6.256;2023-04-08T07:49:18;96766.75;;;8.72;100.00
41334;BME280;27078;46.428;6.256;2023-04-08T07:51:43;96770.56;;;8.68;100.00
41334;BME280;27078;46.428;6.256;2023-04-08T07:54:09;96769.13;;;8.53;100.00
41334;BME280;27078;46.428;6.256;2023-04-08T07:56:36;96760.66;;;8.83;100.00
41334;BME280;27078;46.428;6.256;2023-04-08T07:59:05;96766.28;;;9.01;100.00
41334;BME280;27078;46.428;6.256;2023-04-08T08:01:30;96772.66;;;8.99;100.00
41334;BME280;27078;46.428;6.256;2023-04-08T08:03:59;96773.84;;;9.40;100.00
41334;BME280;27078;46.428;6.256;2023-04-08T08:06:24;96776.34;;;9.41;100.00
41334;BME280;27078;46.428;6.256;2023-04-08T08:08:50;96777.56;;;9.48;100.00
41334;BME280;27078;46.428;6.256;2023-04-08T08:11:15;96785.69;;;9.68;100.00
41334;BME280;27078;46.428;6.256;2023-04-08T08:13:41;96775.78;;;9.92;100.00
41334;BME280;27078;46.428;6.256;2023-04-08T08:16:06;96792.94;;;9.98;100.00
41334;BME280;27078;46.428;6.256;2023-04-08T08:18:35;96794.69;;;10.09;100.00
41334;BME280;27078;46.428;6.256;2023-04-08T08:21:01;96795.94;;;10.37;100.00
41334;BME280;27078;46.428;6.256;2023-04-08T08:23:26;96787.84;;;10.71;100.00
41334;BME280;27078;46.428;6.256;2023-04-08T08:26:05;96794.03;;;11.02;100.00
41334;BME280;27078;46.428;6.256;2023-04-08T08:28:31;96791.56;;;11.10;100.00
41334;BME280;27078;46.428;6.256;2023-04-08T08:30:57;96792.38;;;11.63;100.00
41334;BME280;27078;46.428;6.256;2023-04-08T08:33:23;96796.94;;;11.30;100.00
41334;BME280;27078;46.428;6.256;2023-04-08T08:35:49;96789.81;;;11.20;100.00
41334;BME280;27078;46.428;6.256;2023-04-08T08:38:14;96786.78;;;11.66;100.00
41334;BME280;27078;46.428;6.256;2023-04-08T08:40:42;96791.66;;;11.60;100.00
41334;BME280;27078;46.428;6.256;2023-04-08T08:43:08;96788.41;;;11.47;100.00
41334;BME280;27078;46.428;6.256;2023-04-08T08:45:38;96790.84;;;11.29;100.00
41334;BME280;27078;46.428;6.256;2023-04-08T08:48:03;96797.66;;;11.72;100.00
41334;BME280;27078;46.428;6.256;2023-04-08T08:50:30;96784.13;;;11.96;100.00
41334;BME280;27078;46.428;6.256;2023-04-08T08:52:55;96789.72;;;12.42;100.00
41334;BME280;27078;46.428;6.256;2023-04-08T08:55:20;96786.09;;;12.14;100.00
41334;BME280;27078;46.428;6.256;2023-04-08T08:57:49;96792.22;;;12.63;100.00
41334;BME280;27078;46.428;6.256;2023-04-08T09:00:15;96776.16;;;12.94;100.00
41334;BME280;27078;46.428;6.256;2023-04-08T09:02:41;96775.38;;;13.21;100.00
41334;BME280;27078;46.428;6.256;2023-04-08T09:05:06;96779.84;;;13.20;100.00
41334;BME280;27078;46.428;6.256;2023-04-08T09:07:35;96791.63;;;13.08;100.00
41334;BME280;27078;46.428;6.256;2023-04-08T09:10:01;96789.94;;;13.07;100.00
41334;BME280;27078;46.428;6.256;2023-04-08T09:12:26;96786.59;;;13.05;100.00
41334;BME280;27078;46.428;6.256;2023-04-08T09:15:06;96780.53;;;13.22;100.00
41334;BME280;27078;46.428;6.256;2023-04-08T09:17:39;96799.16;;;13.03;100.00
41334;BME280;27078;46.428;6.256;2023-04-08T09:20:09;96794.19;;;12.22;100.00
41334;BME280;27078;46.428;6.256;2023-04-08T09:22:57;96799.03;;;12.17;100.00
41334;BME280;27078;46.428;6.256;2023-04-08T09:25:28;96788.88;;;12.22;100.00
41334;BME280;27078;46.428;6.256;2023-04-08T09:27:54;96797.13;;;12.48;100.00
41334;BME280;27078;46.428;6.256;2023-04-08T09:30:23;96795.88;;;12.42;100.00
41334;BME280;27078;46.428;6.256;2023-04-08T09:32:51;96786.41;;;12.59;100.00
41334;BME280;27078;46.428;6.256;2023-04-08T09:35:17;96797.25;;;12.66;100.00
41334;BME280;27078;46.428;6.256;2023-04-08T09:37:43;96783.44;;;12.62;100.00
41334;BME280;27078;46.428;6.256;2023-04-08T09:40:09;96787.94;;;12.42;100.00
41334;BME280;27078;46.428;6.256;2023-04-08T09:42:39;96783.88;;;12.58;100.00
41334;BME280;27078;46.428;6.256;2023-04-08T09:45:06;96789.31;;;12.47;100.00
41334;BME280;27078;46.428;6.256;2023-04-08T09:48:03;96782.34;;;12.46;100.00
41334;BME280;27078;46.428;6.256;2023-04-08T09:50:31;96775.09;;;12.57;100.00
41334;BME280;27078;46.428;6.256;2023-04-08T09:53:08;96776.72;;;12.78;100.00
41334;BME280;27078;46.428;6.256;2023-04-08T09:55:36;96783.41;;;12.92;100.00
41334;BME280;27078;46.428;6.256;2023-04-08T09:58:14;96778.44;;;13.36;100.00
41334;BME280;27078;46.428;6.256;2023-04-08T10:00:45;96776.50;;;13.66;100.00
41334;BME280;27078;46.428;6.256;2023-04-08T10:03:35;96785.16;;;13.30;100.00
41334;BME280;27078;46.428;6.256;2023-04-08T10:06:01;96785.06;;;13.12;100.00
41334;BME280;27078;46.428;6.256;2023-04-08T10:08:27;96788.34;;;13.34;100.00
41334;BME280;27078;46.428;6.256;2023-04-08T10:10:55;96786.97;;;13.30;100.00
41334;BME280;27078;46.428;6.256;2023-04-08T10:13:20;96782.34;;;13.22;100.00
41334;BME280;27078;46.428;6.256;2023-04-08T10:15:46;96779.38;;;13.44;100.00
41334;BME280;27078;46.428;6.256;2023-04-08T10:23:17;96780.09;;;13.37;100.00
41334;BME280;27078;46.428;6.256;2023-04-08T10:25:46;96785.81;;;13.42;100.00
41334;BME280;27078;46.428;6.256;2023-04-08T10:30:49;96783.25;;;13.50;100.00
41334;BME280;27078;46.428;6.256;2023-04-08T10:33:22;96782.25;;;13.61;100.00
41334;BME280;27078;46.428;6.256;2023-04-08T10:35:53;96773.19;;;13.81;100.00
41334;BME280;27078;46.428;6.256;2023-04-08T10:38:19;96773.72;;;13.85;100.00
41334;BME280;27078;46.428;6.256;2023-04-08T10:40:47;96775.38;;;13.86;100.00
41334;BME280;27078;46.428;6.256;2023-04-08T10:43:13;96764.06;;;13.84;100.00
41334;BME280;27078;46.428;6.256;2023-04-08T10:45:39;96766.22;;;13.80;88.37
41334;BME280;27078;46.428;6.256;2023-04-08T10:48:23;96776.97;;;13.79;100.00
41334;BME280;27078;46.428;6.256;2023-04-08T10:50:57;96770.38;;;13.83;100.00
41334;BME280;27078;46.428;6.256;2023-04-08T10:53:25;96773.28;;;13.90;100.00
41334;BME280;27078;46.428;6.256;2023-04-08T10:55:51;96759.59;;;14.12;100.00
41334;BME280;27078;46.428;6.256;2023-04-08T10:58:17;96764.72;;;14.14;100.00
41334;BME280;27078;46.428;6.256;2023-04-08T11:00:42;96762.25;;;14.12;100.00
41334;BME280;27078;46.428;6.256;2023-04-08T11:03:09;96766.09;;;14.18;100.00
41334;BME280;27078;46.428;6.256;2023-04-08T11:05:36;96765.13;;;14.19;90.88
41334;BME280;27078;46.428;6.256;2023-04-08T11:08:03;96758.13;;;14.18;100.00
41334;BME280;27078;46.428;6.256;2023-04-08T11:10:29;96747.13;;;14.31;91.76
41334;BME280;27078;46.428;6.256;2023-04-08T11:12:55;96760.50;;;14.21;92.29
41334;BME280;27078;46.428;6.256;2023-04-08T11:15:22;96761.91;;;13.97;84.63
41334;BME280;27078;46.428;6.256;2023-04-08T11:17:48;96768.97;;;13.89;81.31
41334;BME280;27078;46.428;6.256;2023-04-08T11:20:14;96751.38;;;13.60;80.34
41334;BME280;27078;46.428;6.256;2023-04-08T11:22:40;96761.56;;;13.17;89.67
41334;BME280;27078;46.428;6.256;2023-04-08T11:25:09;96762.78;;;13.33;100.00
41334;BME280;27078;46.428;6.256;2023-04-08T11:27:35;96764.38;;;13.81;80.15
41334;BME280;27078;46.428;6.256;2023-04-08T11:30:01;96758.63;;;13.85;82.50
41334;BME280;27078;46.428;6.256;2023-04-08T11:32:27;96754.69;;;13.44;82.13
41334;BME280;27078;46.428;6.256;2023-04-08T11:34:53;96752.94;;;13.53;84.98
41334;BME280;27078;46.428;6.256;2023-04-08T11:37:19;96763.22;;;13.38;78.75
41334;BME280;27078;46.428;6.256;2023-04-08T11:39:45;96755.34;;;13.46;73.86
41334;BME280;27078;46.428;6.256;2023-04-08T11:42:29;96748.09;;;13.76;74.21
41334;BME280;27078;46.428;6.256;2023-04-08T11:44:55;96743.16;;;13.81;64.78
41334;BME280;27078;46.428;6.256;2023-04-08T11:47:21;96739.69;;;14.34;70.20
41334;BME280;27078;46.428;6.256;2023-04-08T11:49:46;96754.72;;;14.25;62.79
41334;BME280;27078;46.428;6.256;2023-04-08T11:52:12;96738.69;;;14.53;69.37
41334;BME280;27078;46.428;6.256;2023-04-08T11:54:41;96731.75;;;14.78;65.47
41334;BME280;27078;46.428;6.256;2023-04-08T11:57:07;96733.34;;;14.89;65.63
41334;BME280;27078;46.428;6.256;2023-04-08T11:59:35;96736.81;;;14.90;61.04
41334;BME280;27078;46.428;6.256;2023-04-08T12:02:02;96725.34;;;15.15;68.84
41334;BME280;27078;46.428;6.256;2023-04-08T12:04:27;96707.84;;;15.47;67.39
41334;BME280;27078;46.428;6.256;2023-04-08T12:06:54;96717.88;;;15.61;64.07
41334;BME280;27078;46.428;6.256;2023-04-08T12:09:19;96710.28;;;15.66;63.54
41334;BME280;27078;46.428;6.256;2023-04-08T12:11:45;96719.66;;;15.87;67.38
41334;BME280;27078;46.428;6.256;2023-04-08T12:14:10;96723.66;;;15.83;57.93
41334;BME280;27078;46.428;6.256;2023-04-08T12:16:36;96727.19;;;16.00;59.11
41334;BME280;27078;46.428;6.256;2023-04-08T12:19:01;96721.38;;;16.21;65.42
41334;BME280;27078;46.428;6.256;2023-04-08T12:21:26;96718.25;;;16.50;60.43
41334;BME280;27078;46.428;6.256;2023-04-08T12:23:52;96712.75;;;16.60;58.35
41334;BME280;27078;46.428;6.256;2023-04-08T12:26:18;96706.91;;;16.64;57.36
41334;BME280;27078;46.428;6.256;2023-04-08T12:28:44;96707.25;;;16.86;61.25
41334;BME280;27078;46.428;6.256;2023-04-08T12:31:10;96711.91;;;16.92;59.37
41334;BME280;27078;46.428;6.256;2023-04-08T12:33:35;96706.56;;;16.67;55.51
41334;BME280;27078;46.428;6.256;2023-04-08T12:36:01;96707.09;;;16.96;58.00
41334;BME280;27078;46.428;6.256;2023-04-08T12:38:27;96698.97;;;17.28;55.72
41334;BME280;27078;46.428;6.256;2023-04-08T12:40:53;96696.41;;;16.87;61.29
41334;BME280;27078;46.428;6.256;2023-04-08T12:43:19;96704.75;;;16.68;55.98
41334;BME280;27078;46.428;6.256;2023-04-08T12:45:48;96697.75;;;16.67;58.94
41334;BME280;27078;46.428;6.256;2023-04-08T12:48:13;96696.72;;;15.94;58.35
41334;BME280;27078;46.428;6.256;2023-04-08T12:50:39;96701.56;;;16.07;60.80
41334;BME280;27078;46.428;6.256;2023-04-08T12:53:05;96693.03;;;15.87;63.80
41334;BME280;27078;46.428;6.256;2023-04-08T12:55:31;96694.53;;;15.47;64.12
41334;BME280;27078;46.428;6.256;2023-04-08T12:57:56;96696.34;;;15.04;58.39
41334;BME280;27078;46.428;6.256;2023-04-08T13:00:21;96698.06;;;15.47;63.82
41334;BME280;27078;46.428;6.256;2023-04-08T13:02:47;96698.19;;;15.38;61.85